createdAt,value
2019-02-10T00:00:36.189Z,97159.13
2019-02-10T00:01:48.292Z,97149.73
2019-02-10T00:02:51.133Z,97145.85
2019-02-10T00:03:53.806Z,97149.75
2019-02-10T00:04:56.463Z,97148.64
2019-02-10T00:05:59.205Z,97155.16
2019-02-10T00:07:02.218Z,97153.27
2019-02-10T00:08:04.907Z,97153.81
2019-02-10T00:09:13.613Z,97144.50
2019-02-10T00:10:23.267Z,97155.80
2019-02-10T00:11:28.889Z,97140.59
2019-02-10T00:12:33.869Z,97140.59
2019-02-10T00:13:36.945Z,97146.84
2019-02-10T00:14:40.601Z,97146.84
2019-02-10T00:15:47.501Z,97121.77
2019-02-10T00:16:49.327Z,97120.02
2019-02-10T00:17:52.253Z,97123.05
2019-02-10T00:18:56.543Z,97117.22
2019-02-10T00:19:59.676Z,97117.13
2019-02-10T00:21:02.996Z,97111.73
2019-02-10T00:22:08.047Z,97111.73
2019-02-10T00:23:10.827Z,97115.00
2019-02-10T00:24:14.599Z,97099.11
2019-02-10T00:25:17.337Z,97101.09
2019-02-10T00:26:20.492Z,97101.09
2019-02-10T00:27:27.300Z,97100.55
2019-02-10T00:28:34.435Z,97099.26
2019-02-10T00:29:37.183Z,97099.26
2019-02-10T00:30:41.423Z,97100.04
2019-02-10T00:31:44.115Z,97087.48
2019-02-10T00:32:51.484Z,97087.09
2019-02-10T00:33:54.241Z,97086.19
2019-02-10T00:34:57.466Z,97086.19
2019-02-10T00:36:00.163Z,97088.36
2019-02-10T00:37:02.869Z,97085.56
2019-02-10T00:38:05.645Z,97086.43
2019-02-10T00:39:11.774Z,97087.24
2019-02-10T00:40:14.583Z,97091.75
2019-02-10T00:41:17.339Z,97094.94
2019-02-10T00:42:20.545Z,97077.08
2019-02-10T00:43:23.246Z,97082.01
2019-02-10T00:44:25.923Z,97082.01
2019-02-10T00:45:31.714Z,97084.48
2019-02-10T00:46:36.143Z,97068.64
2019-02-10T00:47:38.913Z,97072.60
2019-02-10T00:48:41.624Z,97074.28
2019-02-10T00:49:44.305Z,97072.45
2019-02-10T00:50:47.007Z,97076.84
2019-02-10T00:51:55.283Z,97069.30
2019-02-10T00:52:58.054Z,97069.30
2019-02-10T00:54:00.768Z,97069.84
2019-02-10T00:55:03.437Z,97069.84
2019-02-10T00:56:06.239Z,97069.30
2019-02-10T00:57:13.046Z,97064.34
2019-02-10T00:58:13.656Z,97054.66
2019-02-10T00:59:16.381Z,97045.11
2019-02-10T01:00:19.247Z,97045.11
2019-02-10T01:01:22.068Z,97040.05
2019-02-10T01:02:24.831Z,97039.81
2019-02-10T01:03:27.581Z,97035.90
2019-02-10T01:04:32.298Z,97042.91
2019-02-10T01:05:40.924Z,97042.91
2019-02-10T01:06:43.726Z,97032.86
2019-02-10T01:07:48.352Z,97039.77
2019-02-10T01:08:53.826Z,97028.17
2019-02-10T01:09:56.550Z,97026.67
2019-02-10T01:10:59.994Z,97025.70
2019-02-10T01:12:02.815Z,97012.63
2019-02-10T01:13:05.542Z,97004.50
2019-02-10T01:14:08.297Z,97010.16
2019-02-10T01:15:14.151Z,97011.16
2019-02-10T01:16:19.965Z,97011.94
2019-02-10T01:17:22.763Z,97011.94
2019-02-10T01:18:25.432Z,97013.19
2019-02-10T01:19:28.095Z,97009.52
2019-02-10T01:20:30.764Z,97009.52
2019-02-10T01:21:33.514Z,97003.87
2019-02-10T01:22:37.373Z,96987.40
2019-02-10T01:23:40.333Z,96987.40
2019-02-10T01:24:43.115Z,96990.83
2019-02-10T01:25:45.891Z,96990.83
2019-02-10T01:26:49.030Z,97000.53
2019-02-10T01:27:52.580Z,97000.53
2019-02-10T01:28:55.396Z,96981.69
2019-02-10T01:29:58.839Z,96990.05
2019-02-10T01:31:01.555Z,96995.56
2019-02-10T01:32:04.648Z,96981.80
2019-02-10T01:33:07.422Z,96985.84
2019-02-10T01:34:10.227Z,97001.51
2019-02-10T01:35:15.555Z,96979.32
2019-02-10T01:36:18.504Z,96977.64
2019-02-10T01:37:24.406Z,96977.64
2019-02-10T01:38:28.721Z,96974.15
2019-02-10T01:39:31.419Z,96972.60
2019-02-10T01:40:34.182Z,96961.78
2019-02-10T01:41:36.866Z,96962.55
2019-02-10T01:42:39.852Z,96951.05
2019-02-10T01:43:42.689Z,96947.88
2019-02-10T01:44:45.510Z,96944.83
2019-02-10T01:45:48.238Z,96948.69
2019-02-10T01:46:50.974Z,96948.69
2019-02-10T01:47:53.746Z,96946.56
2019-02-10T01:48:56.730Z,96946.56
2019-02-10T01:50:00.089Z,96924.88
2019-02-10T01:51:02.958Z,96931.20
2019-02-10T01:52:05.718Z,96926.47
2019-02-10T01:53:08.550Z,96918.83
2019-02-10T01:54:11.286Z,96918.83
2019-02-10T01:55:14.448Z,96930.42
2019-02-10T01:56:17.147Z,96912.97
2019-02-10T01:57:19.902Z,96902.59
2019-02-10T01:58:22.686Z,96902.59
2019-02-10T01:59:25.371Z,96899.31
2019-02-10T02:00:28.153Z,96895.83
2019-02-10T02:01:31.229Z,96897.28
2019-02-10T02:02:33.987Z,96899.64
2019-02-10T02:03:36.729Z,96898.42
2019-02-10T02:04:39.560Z,96897.28
2019-02-10T02:05:45.361Z,96895.25
2019-02-10T02:06:48.608Z,96888.48
2019-02-10T02:07:51.679Z,96888.48
2019-02-10T02:08:56.649Z,96884.19
2019-02-10T02:09:59.354Z,96864.71
2019-02-10T02:11:02.085Z,96868.42
2019-02-10T02:12:06.788Z,96856.15
2019-02-10T02:13:09.592Z,96855.68
2019-02-10T02:14:12.656Z,96848.91
2019-02-10T02:15:15.333Z,96847.13
2019-02-10T02:16:18.279Z,96852.30
2019-02-10T02:17:20.972Z,96852.30
2019-02-10T02:18:23.774Z,96843.95
2019-02-10T02:19:26.521Z,96841.24
2019-02-10T02:20:31.732Z,96833.70
2019-02-10T02:21:34.115Z,96833.70
2019-02-10T02:22:36.898Z,96833.91
2019-02-10T02:23:39.667Z,96819.12
2019-02-10T02:24:42.425Z,96822.53
2019-02-10T02:25:45.092Z,96815.20
2019-02-10T02:26:48.079Z,96816.01
2019-02-10T02:27:50.883Z,96809.01
2019-02-10T02:28:56.104Z,96817.77
2019-02-10T02:29:58.908Z,96806.30
2019-02-10T02:31:01.626Z,96806.30
2019-02-10T02:32:04.304Z,96796.02
2019-02-10T02:33:07.489Z,96796.02
2019-02-10T02:34:10.317Z,96787.49
2019-02-10T02:35:12.979Z,96779.58
2019-02-10T02:36:15.794Z,96764.49
2019-02-10T02:37:18.562Z,96767.51
2019-02-10T02:38:21.842Z,96769.20
2019-02-10T02:39:24.971Z,96777.89
2019-02-10T02:40:27.758Z,96788.48
2019-02-10T02:41:30.581Z,96788.48
2019-02-10T02:42:33.254Z,96773.70
2019-02-10T02:43:36.027Z,96779.46
2019-02-10T02:44:39.472Z,96773.81
2019-02-10T02:45:42.249Z,96773.81
2019-02-10T02:46:44.991Z,96777.77
2019-02-10T02:47:47.763Z,96771.55
2019-02-10T02:48:50.444Z,96753.19
2019-02-10T02:49:56.233Z,96750.02
2019-02-10T02:51:01.015Z,96750.35
2019-02-10T02:52:04.312Z,96759.48
2019-02-10T02:53:07.573Z,96757.24
2019-02-10T02:54:10.398Z,96751.05
2019-02-10T02:55:13.165Z,96742.94
2019-02-10T02:56:18.435Z,96737.73
2019-02-10T02:57:21.493Z,96738.07
2019-02-10T02:58:24.286Z,96737.06
2019-02-10T02:59:26.989Z,96719.24
2019-02-10T03:00:29.656Z,96719.24
2019-02-10T03:01:32.390Z,96733.13
2019-02-10T03:02:35.185Z,96736.61
2019-02-10T03:03:38.245Z,96736.61
2019-02-10T03:04:42.011Z,96714.97
2019-02-10T03:05:44.698Z,96713.38
2019-02-10T03:06:47.914Z,96715.55
2019-02-10T03:07:50.598Z,96715.08
2019-02-10T03:08:53.259Z,96715.08
2019-02-10T03:09:56.748Z,96718.70
2019-02-10T03:10:59.555Z,96722.29
2019-02-10T03:12:04.886Z,96721.72
2019-02-10T03:13:07.566Z,96721.72
2019-02-10T03:14:10.473Z,96726.34
2019-02-10T03:15:13.243Z,96711.47
2019-02-10T03:16:16.287Z,96699.64
2019-02-10T03:17:18.953Z,96699.64
2019-02-10T03:18:21.647Z,96690.27
2019-02-10T03:19:24.814Z,96687.31
2019-02-10T03:20:27.584Z,96688.30
2019-02-10T03:21:30.861Z,96668.23
2019-02-10T03:22:34.394Z,96672.40
2019-02-10T03:23:37.157Z,96672.40
2019-02-10T03:24:42.417Z,96652.01
2019-02-10T03:25:45.144Z,96652.01
2019-02-10T03:26:47.921Z,96654.03
2019-02-10T03:27:51.082Z,96631.38
2019-02-10T03:28:54.208Z,96636.11
2019-02-10T03:29:56.978Z,96628.87
2019-02-10T03:30:59.761Z,96632.66
2019-02-10T03:32:02.573Z,96629.39
2019-02-10T03:33:05.342Z,96633.00
2019-02-10T03:34:09.869Z,96625.68
2019-02-10T03:35:13.292Z,96628.48
2019-02-10T03:36:16.147Z,96625.89
2019-02-10T03:37:26.791Z,96617.31
2019-02-10T03:38:23.352Z,96621.81
2019-02-10T03:39:26.049Z,96628.44
2019-02-10T03:40:30.028Z,96611.66
2019-02-10T03:41:32.844Z,96639.68
2019-02-10T03:42:35.802Z,96629.11
2019-02-10T03:43:38.547Z,96606.80
2019-02-10T03:44:41.457Z,96605.69
2019-02-10T03:45:44.233Z,96603.32
2019-02-10T03:46:47.047Z,96606.06
2019-02-10T03:47:49.758Z,96599.31
2019-02-10T03:48:52.821Z,96599.31
2019-02-10T03:49:55.982Z,96593.45
2019-02-10T03:50:59.057Z,96577.99
2019-02-10T03:52:01.715Z,96588.14
2019-02-10T03:53:04.409Z,96588.14
2019-02-10T03:54:07.178Z,96572.59
2019-02-10T03:55:10.341Z,96561.59
2019-02-10T03:56:13.019Z,96561.56
2019-02-10T03:57:15.733Z,96568.55
2019-02-10T03:58:18.504Z,96564.13
2019-02-10T03:59:21.259Z,96562.91
2019-02-10T04:00:23.970Z,96562.91
2019-02-10T04:01:26.962Z,96553.67
2019-02-10T04:02:29.721Z,96557.14
2019-02-10T04:03:32.505Z,96549.15
2019-02-10T04:04:35.287Z,96550.27
2019-02-10T04:05:39.961Z,96544.86
2019-02-10T04:06:42.649Z,96544.86
2019-02-10T04:07:45.677Z,96560.39
2019-02-10T04:08:48.476Z,96561.53
2019-02-10T04:09:51.177Z,96561.53
2019-02-10T04:10:56.359Z,96534.06
2019-02-10T04:11:59.783Z,96526.54
2019-02-10T04:13:02.532Z,96524.84
2019-02-10T04:14:05.703Z,96522.15
2019-02-10T04:15:08.438Z,96522.15
2019-02-10T04:16:11.196Z,96518.41
2019-02-10T04:17:13.850Z,96510.66
2019-02-10T04:18:16.535Z,96510.66
2019-02-10T04:19:22.558Z,96516.83
2019-02-10T04:20:25.270Z,96508.50
2019-02-10T04:21:28.080Z,96507.85
2019-02-10T04:22:30.787Z,96482.33
2019-02-10T04:23:33.521Z,96497.08
2019-02-10T04:24:36.331Z,96488.74
2019-02-10T04:25:42.262Z,96480.64
2019-02-10T04:26:45.133Z,96483.58
2019-02-10T04:27:48.251Z,96473.45
2019-02-10T04:28:50.935Z,96473.45
2019-02-10T04:29:53.783Z,96478.61
2019-02-10T04:30:56.574Z,96456.69
2019-02-10T04:32:02.111Z,96453.19
2019-02-10T04:33:04.863Z,96446.67
2019-02-10T04:34:07.551Z,96446.67
2019-02-10T04:35:10.718Z,96451.41
2019-02-10T04:36:13.422Z,96451.41
2019-02-10T04:37:16.202Z,96438.13
2019-02-10T04:38:19.231Z,96428.34
2019-02-10T04:39:21.947Z,96428.34
2019-02-10T04:40:24.709Z,96451.99
2019-02-10T04:41:27.403Z,96416.09
2019-02-10T04:42:30.249Z,96426.58
2019-02-10T04:43:32.935Z,96427.69
2019-02-10T04:44:35.931Z,96418.25
2019-02-10T04:45:38.687Z,96421.84
2019-02-10T04:46:46.148Z,96421.84
2019-02-10T04:47:48.920Z,96416.56
2019-02-10T04:48:51.627Z,96417.13
2019-02-10T04:49:54.369Z,96409.59
2019-02-10T04:50:57.329Z,96394.73
2019-02-10T04:51:59.993Z,96413.30
2019-02-10T04:53:02.756Z,96399.95
2019-02-10T04:54:05.454Z,96379.19
2019-02-10T04:55:08.205Z,96379.19
2019-02-10T04:56:10.983Z,96390.48
2019-02-10T04:57:13.998Z,96388.36
2019-02-10T04:58:16.709Z,96401.95
2019-02-10T04:59:19.396Z,96372.13
2019-02-10T05:00:22.598Z,96381.50
2019-02-10T05:01:25.252Z,96383.16
2019-02-10T05:02:27.945Z,96388.34
2019-02-10T05:03:31.085Z,96363.02
2019-02-10T05:04:33.854Z,96365.02
2019-02-10T05:05:36.584Z,96367.84
2019-02-10T05:06:39.257Z,96354.22
2019-02-10T05:07:41.939Z,96361.32
2019-02-10T05:08:44.597Z,96347.27
2019-02-10T05:09:47.660Z,96348.73
2019-02-10T05:10:51.914Z,96352.33
2019-02-10T05:11:55.304Z,96375.41
2019-02-10T05:12:57.997Z,96350.27
2019-02-10T05:14:00.683Z,96329.42
2019-02-10T05:15:07.972Z,96340.80
2019-02-10T05:16:11.281Z,96333.03
2019-02-10T05:17:13.934Z,96330.11
2019-02-10T05:18:16.644Z,96330.11
2019-02-10T05:19:19.346Z,96312.55
2019-02-10T05:20:22.188Z,96323.12
2019-02-10T05:21:24.942Z,96320.31
2019-02-10T05:22:27.913Z,96320.12
2019-02-10T05:23:30.708Z,96315.03
2019-02-10T05:24:33.445Z,96315.03
2019-02-10T05:25:36.127Z,96300.05
2019-02-10T05:26:38.865Z,96310.31
2019-02-10T05:27:41.604Z,96285.77
2019-02-10T05:28:44.775Z,96300.62
2019-02-10T05:29:47.569Z,96297.09
2019-02-10T05:30:53.287Z,96297.09
2019-02-10T05:31:56.038Z,96312.87
2019-02-10T05:32:58.820Z,96287.39
2019-02-10T05:34:01.629Z,96272.10
2019-02-10T05:35:04.702Z,96295.73
2019-02-10T05:36:07.492Z,96295.73
2019-02-10T05:37:10.606Z,96265.20
2019-02-10T05:38:13.390Z,96262.62
2019-02-10T05:39:16.205Z,96262.62
2019-02-10T05:40:18.953Z,96262.14
2019-02-10T05:41:22.728Z,96255.98
2019-02-10T05:42:25.497Z,96262.05
2019-02-10T05:43:28.260Z,96265.30
2019-02-10T05:44:30.950Z,96253.19
2019-02-10T05:45:33.636Z,96274.13
2019-02-10T05:46:36.403Z,96274.13
2019-02-10T05:47:39.222Z,96254.27
2019-02-10T05:48:41.963Z,96265.08
2019-02-10T05:49:44.744Z,96246.58
2019-02-10T05:50:47.503Z,96239.01
2019-02-10T05:51:50.343Z,96233.28
2019-02-10T05:52:55.185Z,96248.45
2019-02-10T05:53:57.756Z,96229.64
2019-02-10T05:55:00.512Z,96240.11
2019-02-10T05:56:03.239Z,96233.67
2019-02-10T05:57:06.745Z,96212.25
2019-02-10T05:58:09.427Z,96226.68
2019-02-10T05:59:12.093Z,96207.48
2019-02-10T06:00:15.267Z,96214.79
2019-02-10T06:01:18.052Z,96210.79
2019-02-10T06:02:29.908Z,96216.66
2019-02-10T06:03:32.594Z,96217.69
2019-02-10T06:04:38.216Z,96217.69
2019-02-10T06:05:41.180Z,96178.36
2019-02-10T06:06:44.186Z,96174.98
2019-02-10T06:07:47.011Z,96174.98
2019-02-10T06:08:50.214Z,96177.52
2019-02-10T06:09:55.516Z,96163.17
2019-02-10T06:10:58.304Z,96151.77
2019-02-10T06:12:01.491Z,96165.97
2019-02-10T06:13:04.722Z,96158.70
2019-02-10T06:14:07.448Z,96157.71
2019-02-10T06:15:22.253Z,96150.14
2019-02-10T06:16:24.924Z,96133.77
2019-02-10T06:17:27.648Z,96128.27
2019-02-10T06:18:30.389Z,96145.27
2019-02-10T06:19:33.412Z,96141.97
2019-02-10T06:20:36.653Z,96141.97
2019-02-10T06:21:40.162Z,96142.65
2019-02-10T06:22:42.927Z,96131.59
2019-02-10T06:23:45.710Z,96131.65
2019-02-10T06:24:48.427Z,96123.61
2019-02-10T06:25:51.620Z,96123.61
2019-02-10T06:26:54.368Z,96132.17
2019-02-10T06:27:57.509Z,96086.46
2019-02-10T06:29:00.213Z,96127.84
2019-02-10T06:43:53.279Z,96084.16
2019-02-10T06:44:56.220Z,96074.41
2019-02-10T06:45:59.312Z,96079.69
2019-02-10T06:47:03.106Z,96079.69
2019-02-10T06:48:05.800Z,96061.89
2019-02-10T06:49:09.355Z,96033.73
2019-02-10T06:50:12.089Z,96033.73
2019-02-10T06:51:14.786Z,96065.17
2019-02-10T06:52:17.548Z,96073.80
2019-02-10T06:53:20.749Z,96049.92
2019-02-10T06:54:25.773Z,96039.38
2019-02-10T06:55:28.553Z,96039.38
2019-02-10T06:56:31.328Z,96060.03
2019-02-10T06:57:34.166Z,96047.92
2019-02-10T06:58:39.095Z,96047.92
2019-02-10T07:00:03.764Z,96054.18
2019-02-10T07:01:29.236Z,96021.75
2019-02-10T07:02:37.907Z,96056.70
2019-02-10T07:03:47.025Z,96056.70
2019-02-10T07:04:49.736Z,96031.95
2019-02-10T07:05:52.704Z,96007.02
2019-02-10T07:06:56.287Z,95998.68
2019-02-10T07:08:02.693Z,96016.58
2019-02-10T07:09:06.101Z,96030.09
2019-02-10T07:10:08.802Z,96025.26
2019-02-10T07:11:11.489Z,96025.26
2019-02-10T07:12:14.201Z,95984.77
2019-02-10T07:13:17.268Z,95981.48
2019-02-10T07:14:19.985Z,96003.73
2019-02-10T07:15:22.693Z,96022.41
2019-02-10T07:16:25.477Z,96002.89
2019-02-10T07:17:31.005Z,96002.89
2019-02-10T07:18:33.773Z,95987.08
2019-02-10T07:19:36.822Z,95985.13
2019-02-10T07:20:39.594Z,96011.70
2019-02-10T07:21:42.267Z,95983.13
2019-02-10T07:22:44.925Z,95984.58
2019-02-10T07:23:47.686Z,95987.62
2019-02-10T07:24:53.256Z,95971.67
2019-02-10T07:25:59.031Z,95971.67
2019-02-10T07:27:01.745Z,95982.72
2019-02-10T07:28:04.794Z,95970.39
2019-02-10T07:29:07.512Z,95950.62
2019-02-10T07:30:10.211Z,95956.19
2019-02-10T07:31:13.413Z,95964.75
2019-02-10T07:32:16.451Z,95969.87
2019-02-10T07:33:19.182Z,95978.66
2019-02-10T07:34:21.872Z,95950.99
2019-02-10T07:35:25.342Z,95939.43
2019-02-10T07:36:30.702Z,95967.02
2019-02-10T07:37:33.367Z,95919.62
2019-02-10T07:38:38.928Z,96006.99
2019-02-10T07:39:41.664Z,95924.12
2019-02-10T07:40:44.387Z,95935.03
2019-02-10T07:41:47.126Z,95955.34
2019-02-10T07:42:49.818Z,95937.92
2019-02-10T07:43:52.806Z,95937.92
2019-02-10T07:44:55.711Z,95973.72
2019-02-10T07:45:58.460Z,95944.75
2019-02-10T07:47:01.233Z,95960.53
2019-02-10T07:48:03.940Z,95928.66
2019-02-10T07:49:06.702Z,95904.28
2019-02-10T07:50:09.762Z,95924.49
2019-02-10T07:51:12.480Z,95924.49
2019-02-10T07:52:15.180Z,95921.94
2019-02-10T07:53:17.913Z,95894.48
2019-02-10T07:54:20.712Z,95914.65
2019-02-10T07:55:24.869Z,95953.05
2019-02-10T07:56:28.845Z,95927.59
2019-02-10T07:57:33.726Z,95893.37
2019-02-10T07:58:36.553Z,95924.66
2019-02-10T07:59:39.291Z,95900.79
2019-02-10T08:00:42.013Z,95854.37
2019-02-10T08:01:45.621Z,95892.23
2019-02-10T08:02:48.611Z,95892.23
2019-02-10T08:03:51.365Z,95885.31
2019-02-10T08:04:54.203Z,95946.98
2019-02-10T08:05:57.433Z,95908.95
2019-02-10T08:07:00.164Z,95923.73
2019-02-10T08:08:02.936Z,95923.73
2019-02-10T08:09:06.537Z,95932.46
2019-02-10T08:10:09.311Z,95796.50
2019-02-10T08:11:13.082Z,95879.69
2019-02-10T08:12:15.778Z,95879.69
2019-02-10T08:13:18.465Z,95930.41
2019-02-10T08:14:21.145Z,95930.41
2019-02-10T08:15:24.138Z,95949.31
2019-02-10T08:16:27.211Z,95949.31
2019-02-10T08:17:29.890Z,95826.77
2019-02-10T08:18:32.564Z,95885.50
2019-02-10T08:19:38.390Z,95885.50
2019-02-10T08:20:43.256Z,95857.17
2019-02-10T08:21:48.961Z,95873.02
2019-02-10T08:22:52.244Z,95869.05
2019-02-10T08:23:59.221Z,95869.05
2019-02-10T08:24:59.375Z,95865.16
2019-02-10T08:26:02.181Z,95837.52
2019-02-10T08:27:08.041Z,95859.51
2019-02-10T08:28:11.040Z,95849.34
2019-02-10T08:29:13.702Z,95870.59
2019-02-10T08:30:16.870Z,95863.52
2019-02-10T08:31:19.670Z,95863.52
2019-02-10T08:32:22.426Z,95862.78
2019-02-10T08:33:25.258Z,95878.84
2019-02-10T08:34:28.304Z,95871.50
2019-02-10T08:35:30.984Z,95833.88
2019-02-10T08:36:33.672Z,95833.88
2019-02-10T08:37:36.445Z,95859.30
2019-02-10T08:38:39.177Z,95838.98
2019-02-10T08:39:44.228Z,95862.78
2019-02-10T08:40:47.190Z,95831.81
2019-02-10T08:41:49.860Z,95831.81
2019-02-10T08:42:53.138Z,95867.06
2019-02-10T08:43:55.858Z,95848.69
2019-02-10T08:44:58.581Z,95843.11
2019-02-10T08:46:01.978Z,95857.05
2019-02-10T08:47:04.965Z,95818.36
2019-02-10T08:48:07.742Z,95827.64
2019-02-10T08:49:10.427Z,95843.11
2019-02-10T08:50:13.185Z,95871.48
2019-02-10T08:51:17.296Z,95871.48
2019-02-10T08:52:20.344Z,95821.73
2019-02-10T08:53:26.001Z,95846.14
2019-02-10T08:54:33.367Z,95846.14
2019-02-10T08:55:45.021Z,95801.08
2019-02-10T08:56:48.046Z,95825.53
2019-02-10T08:57:50.737Z,95825.53
2019-02-10T08:58:59.469Z,95806.71
2019-02-10T09:00:06.388Z,95867.05
2019-02-10T09:01:09.346Z,95867.05
2019-02-10T09:02:12.111Z,95821.30
2019-02-10T09:03:19.678Z,95802.48
2019-02-10T09:04:19.219Z,95801.13
2019-02-10T09:05:24.389Z,95801.13
2019-02-10T09:06:27.117Z,95805.70
2019-02-10T09:07:30.164Z,95800.16
2019-02-10T09:08:33.366Z,95801.89
2019-02-10T09:09:36.135Z,95802.16
2019-02-10T09:10:39.162Z,95812.95
2019-02-10T09:11:42.576Z,95814.90
2019-02-10T09:12:52.509Z,95789.52
2019-02-10T09:13:59.590Z,95789.52
2019-02-10T09:15:07.121Z,95830.09
2019-02-10T09:16:09.888Z,95809.22
2019-02-10T09:17:12.650Z,95783.77
2019-02-10T09:18:15.746Z,95783.77
2019-02-10T09:19:21.046Z,95790.23
2019-02-10T09:20:23.717Z,95790.23
2019-02-10T09:21:26.469Z,95787.61
2019-02-10T09:22:29.184Z,95771.66
2019-02-10T09:23:34.201Z,95773.34
2019-02-10T09:24:37.234Z,95699.39
2019-02-10T09:25:44.017Z,95770.68
2019-02-10T09:26:49.174Z,95759.12
2019-02-10T09:27:51.840Z,95800.90
2019-02-10T09:28:57.287Z,95762.81
2019-02-10T09:30:00.021Z,95803.39
2019-02-10T09:31:03.008Z,95797.20
2019-02-10T09:32:06.135Z,95760.48
2019-02-10T09:33:08.821Z,95781.80
2019-02-10T09:34:11.723Z,95781.80
2019-02-10T09:35:18.999Z,95786.20
2019-02-10T09:36:22.846Z,95706.38
2019-02-10T09:37:25.808Z,95759.48
2019-02-10T09:38:30.950Z,95765.63
2019-02-10T09:39:33.787Z,95754.92
2019-02-10T09:40:36.605Z,95725.83
2019-02-10T09:41:40.428Z,95725.83
2019-02-10T09:42:43.150Z,95724.70
2019-02-10T09:43:46.186Z,95754.41
2019-02-10T09:44:48.937Z,95754.41
2019-02-10T09:45:51.577Z,95768.00
2019-02-10T09:46:54.681Z,95768.00
2019-02-10T09:47:57.375Z,95730.77
2019-02-10T09:49:00.155Z,95741.23
2019-02-10T09:50:03.248Z,95741.23
2019-02-10T09:51:07.499Z,95738.80
2019-02-10T09:52:10.380Z,95738.80
2019-02-10T09:53:13.733Z,95762.81
2019-02-10T09:54:19.929Z,95732.94
2019-02-10T09:55:22.488Z,95732.94
2019-02-10T09:56:25.612Z,95731.57
2019-02-10T09:57:30.495Z,95727.23
2019-02-10T09:58:39.906Z,95730.50
2019-02-10T09:59:42.700Z,95710.66
2019-02-10T10:00:45.559Z,95710.66
2019-02-10T10:01:48.536Z,95741.64
2019-02-10T10:02:54.197Z,95725.77
2019-02-10T10:03:57.413Z,95744.75
2019-02-10T10:05:01.280Z,95735.48
2019-02-10T10:06:04.011Z,95751.31
2019-02-10T10:07:06.720Z,95748.39
2019-02-10T10:08:09.697Z,95673.64
2019-02-10T10:09:19.061Z,95736.12
2019-02-10T10:10:17.452Z,95713.03
2019-02-10T10:11:20.181Z,95763.40
2019-02-10T10:12:27.065Z,95698.89
2019-02-10T10:13:27.530Z,95737.26
2019-02-10T10:14:31.057Z,95693.00
2019-02-10T10:15:35.073Z,95741.27
2019-02-10T10:16:37.785Z,95741.27
2019-02-10T10:17:44.316Z,95705.45
2019-02-10T10:18:47.820Z,95715.05
2019-02-10T10:19:50.916Z,95715.05
2019-02-10T10:20:57.997Z,95687.67
2019-02-10T10:22:00.705Z,95687.67
2019-02-10T10:23:03.448Z,95678.74
2019-02-10T10:24:06.213Z,95690.00
2019-02-10T10:25:08.996Z,95699.54
2019-02-10T10:26:12.007Z,95699.54
2019-02-10T10:27:14.683Z,95752.59
2019-02-10T10:28:17.361Z,95704.61
2019-02-10T10:29:20.269Z,95724.61
2019-02-10T10:30:23.035Z,95702.78
2019-02-10T10:31:25.802Z,95702.78
2019-02-10T10:32:30.864Z,95676.14
2019-02-10T10:33:37.374Z,95727.24
2019-02-10T10:34:40.170Z,95727.24
2019-02-10T10:35:42.942Z,95731.73
2019-02-10T10:36:45.600Z,95653.48
2019-02-10T10:37:48.579Z,95667.83
2019-02-10T10:38:54.407Z,95642.81
2019-02-10T10:39:57.175Z,95654.63
2019-02-10T10:40:59.897Z,95654.63
2019-02-10T10:42:02.599Z,95691.21
2019-02-10T10:43:05.382Z,95691.21
2019-02-10T10:44:08.158Z,95671.27
2019-02-10T10:45:11.136Z,95665.45
2019-02-10T10:46:15.377Z,95649.77
2019-02-10T10:47:21.110Z,95649.77
2019-02-10T10:48:23.929Z,95679.28
2019-02-10T10:49:27.185Z,95644.34
2019-02-10T10:50:37.179Z,95661.92
2019-02-10T10:51:39.862Z,95641.76
2019-02-10T10:52:42.528Z,95637.75
2019-02-10T10:53:46.977Z,95637.75
2019-02-10T10:54:52.799Z,95657.63
2019-02-10T10:55:55.664Z,95632.64
2019-02-10T10:57:00.048Z,95629.02
2019-02-10T10:58:02.749Z,95629.03
2019-02-10T10:59:05.456Z,95633.69
2019-02-10T11:00:08.251Z,95635.25
2019-02-10T11:01:11.302Z,95635.25
2019-02-10T11:02:13.950Z,95614.70
2019-02-10T11:03:17.343Z,95602.04
2019-02-10T11:04:20.308Z,95640.52
2019-02-10T11:05:25.907Z,95640.52
2019-02-10T11:06:28.607Z,95620.98
2019-02-10T11:07:31.627Z,95620.98
2019-02-10T11:08:37.405Z,95636.40
2019-02-10T11:09:43.191Z,95608.10
2019-02-10T11:10:48.226Z,95594.54
2019-02-10T11:11:53.398Z,95599.00
2019-02-10T11:12:56.141Z,95629.62
2019-02-10T11:13:59.274Z,95582.01
2019-02-10T11:15:02.394Z,95631.73
2019-02-10T11:16:05.154Z,95586.03
2019-02-10T11:17:10.882Z,95586.03
2019-02-10T11:18:16.940Z,95601.61
2019-02-10T11:19:19.679Z,95599.78
2019-02-10T11:20:22.910Z,95554.52
2019-02-10T11:21:25.779Z,95657.66
2019-02-10T11:22:28.471Z,95604.49
2019-02-10T11:23:31.302Z,95576.30
2019-02-10T11:24:34.093Z,95583.16
2019-02-10T11:25:37.518Z,95604.38
2019-02-10T11:26:43.293Z,95569.43
2019-02-10T11:27:49.230Z,95678.46
2019-02-10T11:28:52.843Z,95541.78
2019-02-10T11:29:57.275Z,95579.91
2019-02-10T11:42:41.174Z,95538.12
2019-02-10T11:43:46.196Z,95552.09
2019-02-10T11:44:52.881Z,95556.55
2019-02-10T11:45:57.188Z,95508.28
2019-02-10T11:47:02.852Z,95510.66
2019-02-10T11:48:10.007Z,95487.23
2019-02-10T11:49:17.282Z,95546.81
2019-02-10T11:50:22.284Z,95584.00
2019-02-10T11:51:28.163Z,95584.00
2019-02-10T11:52:32.491Z,95559.17
2019-02-10T11:53:35.562Z,95536.40
2019-02-10T11:54:41.966Z,95511.97
2019-02-10T11:55:44.874Z,95545.34
2019-02-10T11:56:47.912Z,95534.63
2019-02-10T11:57:50.798Z,95512.86
2019-02-10T11:58:53.543Z,95561.20
2019-02-10T11:59:56.600Z,95511.97
2019-02-10T12:01:03.329Z,95534.23
2019-02-10T12:02:06.015Z,95538.08
2019-02-10T12:03:09.042Z,95538.08
2019-02-10T12:04:12.122Z,95508.88
2019-02-10T12:05:15.011Z,95491.64
2019-02-10T12:06:20.964Z,95485.17
2019-02-10T12:07:24.748Z,95516.45
2019-02-10T12:08:35.629Z,95494.66
2019-02-10T12:09:39.753Z,95456.47
2019-02-10T12:10:43.784Z,95499.05
2019-02-10T12:11:46.640Z,95499.05
2019-02-10T12:12:54.014Z,95508.50
2019-02-10T12:13:57.007Z,95553.88
2019-02-10T12:15:00.144Z,95469.70
2019-02-10T12:16:05.730Z,95484.73
2019-02-10T12:17:09.864Z,95484.73
2019-02-10T12:18:12.564Z,95480.73
2019-02-10T12:19:17.137Z,95480.73
2019-02-10T12:20:26.873Z,95420.87
2019-02-10T12:21:31.248Z,95429.91
2019-02-10T12:22:35.160Z,95471.53
2019-02-10T12:23:37.914Z,95481.36
2019-02-10T12:24:40.711Z,95462.84
2019-02-10T12:25:43.738Z,95405.34
2019-02-10T12:26:49.609Z,95457.48
2019-02-10T12:27:52.332Z,95472.77
2019-02-10T12:28:55.308Z,95563.73
2019-02-10T12:29:58.057Z,95455.89
2019-02-10T12:31:00.795Z,95461.68
2019-02-10T12:32:08.673Z,95487.83
2019-02-10T12:33:14.350Z,95472.22
2019-02-10T12:34:17.103Z,95533.61
2019-02-10T12:35:21.626Z,95533.61
2019-02-10T12:36:25.819Z,95428.10
2019-02-10T12:37:32.580Z,95428.10
2019-02-10T12:38:40.701Z,95484.33
2019-02-10T12:39:43.567Z,95480.17
2019-02-10T12:40:46.418Z,95478.95
2019-02-10T12:41:49.254Z,95471.38
2019-02-10T12:42:54.213Z,95452.20
2019-02-10T12:43:57.295Z,95495.16
2019-02-10T12:45:02.702Z,95495.16
2019-02-10T12:46:07.050Z,95483.55
2019-02-10T12:47:10.716Z,95453.23
2019-02-10T12:48:18.805Z,95459.97
2019-02-10T12:49:23.132Z,95442.39
2019-02-10T12:50:25.854Z,95442.39
2019-02-10T12:51:31.114Z,95449.38
2019-02-10T12:52:36.266Z,95453.44